createdAt,value
2019-03-17T00:03:01.865Z,77.03
2019-03-17T00:08:05.571Z,76.42
2019-03-17T00:13:09.157Z,76.69
2019-03-17T00:18:12.633Z,77.19
2019-03-17T00:23:16.455Z,76.64
2019-03-17T00:28:20.023Z,76.94
2019-03-17T00:33:24.371Z,77.27
2019-03-17T00:38:28.046Z,77.09
2019-03-17T00:43:31.836Z,77.30
2019-03-17T00:48:35.457Z,77.67
2019-03-17T00:53:38.962Z,77.46
2019-03-17T00:58:42.914Z,77.04
2019-03-17T01:03:46.563Z,76.94
2019-03-17T01:08:50.411Z,78.00
2019-03-17T01:13:53.983Z,77.62
2019-03-17T01:18:57.395Z,77.40
2019-03-17T01:24:01.000Z,77.51
2019-03-17T01:29:05.564Z,77.66
2019-03-17T01:34:09.136Z,77.78
2019-03-17T01:39:13.123Z,77.39
2019-03-17T01:44:16.630Z,77.08
2019-03-17T01:49:20.258Z,77.72
2019-03-17T01:54:23.737Z,77.08
2019-03-17T01:59:27.194Z,76.93
2019-03-17T02:04:31.115Z,77.69
2019-03-17T02:09:34.616Z,77.75
2019-03-17T02:14:38.301Z,78.03
2019-03-17T02:19:41.979Z,77.49
2019-03-17T02:24:45.843Z,77.98
2019-03-17T02:29:49.524Z,78.22
2019-03-17T02:34:53.051Z,77.87
2019-03-17T02:39:56.705Z,77.78
2019-03-17T02:45:00.448Z,77.77
2019-03-17T02:50:04.197Z,77.84
2019-03-17T02:55:07.856Z,77.60
2019-03-17T03:00:11.743Z,77.74
2019-03-17T03:05:15.463Z,77.75
2019-03-17T03:10:19.105Z,77.58
2019-03-17T03:15:22.566Z,77.86
2019-03-17T03:20:26.008Z,77.80
2019-03-17T03:25:29.421Z,77.74
2019-03-17T03:30:32.962Z,78.53
2019-03-17T03:35:36.333Z,78.58
2019-03-17T03:40:39.742Z,78.24
2019-03-17T03:45:43.286Z,78.84
2019-03-17T03:50:46.693Z,78.38
2019-03-17T03:55:50.205Z,78.52
2019-03-17T04:00:53.689Z,78.79
2019-03-17T04:05:57.111Z,78.77
2019-03-17T04:11:00.570Z,78.28
2019-03-17T04:16:04.037Z,78.46
2019-03-17T04:21:07.493Z,78.56
2019-03-17T04:26:10.926Z,78.25
2019-03-17T04:31:14.904Z,77.99
2019-03-17T04:36:17.945Z,78.32
2019-03-17T04:41:21.389Z,78.44
2019-03-17T04:46:24.840Z,77.79
2019-03-17T04:51:28.286Z,78.28
2019-03-17T04:56:31.742Z,78.02
2019-03-17T05:01:35.162Z,78.56
2019-03-17T05:06:38.692Z,78.86
2019-03-17T05:11:42.177Z,78.09
2019-03-17T05:16:45.590Z,77.70
2019-03-17T05:21:49.136Z,78.44
2019-03-17T05:26:52.551Z,78.31
2019-03-17T05:31:55.977Z,78.01
2019-03-17T05:37:05.933Z,78.16
2019-03-17T05:42:02.897Z,77.87
2019-03-17T05:47:06.384Z,77.72
2019-03-17T05:52:09.912Z,77.95
2019-03-17T05:57:13.390Z,78.46
2019-03-17T06:02:16.803Z,78.06
2019-03-17T06:07:20.321Z,78.33
2019-03-17T06:12:23.953Z,78.07
2019-03-17T06:17:27.358Z,78.03
2019-03-17T06:22:30.967Z,78.40
2019-03-17T06:27:34.386Z,78.20
2019-03-17T06:32:37.918Z,78.12
2019-03-17T06:37:41.406Z,78.28
2019-03-17T06:42:44.904Z,78.39
2019-03-17T06:47:48.408Z,78.50
2019-03-17T06:52:53.549Z,78.40
2019-03-17T06:57:55.366Z,78.42
2019-03-17T07:02:58.840Z,78.19
2019-03-17T07:08:02.318Z,78.12
2019-03-17T07:13:05.794Z,78.11
2019-03-17T07:18:09.254Z,77.50
2019-03-17T07:23:12.667Z,77.50
2019-03-17T07:28:16.135Z,77.08
2019-03-17T07:33:19.568Z,76.62
2019-03-17T07:38:23.032Z,70.36
2019-03-17T07:43:26.651Z,66.05
2019-03-17T07:48:30.043Z,64.90
2019-03-17T07:53:33.557Z,64.28
2019-03-17T07:58:37.876Z,62.17
2019-03-17T08:03:41.385Z,61.97
2019-03-17T08:08:44.926Z,60.28
2019-03-17T08:13:48.428Z,59.40
2019-03-17T08:18:51.890Z,57.78
2019-03-17T08:23:55.394Z,58.43
2019-03-17T08:28:58.890Z,56.45
2019-03-17T08:34:03.432Z,56.29
2019-03-17T08:39:08.047Z,56.41
2019-03-17T08:44:11.728Z,55.62
2019-03-17T08:49:15.356Z,55.65
2019-03-17T08:54:18.956Z,53.98
2019-03-17T08:59:24.689Z,53.39
2019-03-17T09:04:28.176Z,52.35
2019-03-17T09:09:31.691Z,51.62
2019-03-17T09:14:36.517Z,50.71
2019-03-17T09:19:40.152Z,51.55
2019-03-17T09:24:44.209Z,49.05
2019-03-17T09:29:47.779Z,48.59
2019-03-17T09:34:51.513Z,49.82
2019-03-17T09:39:54.999Z,49.53
2019-03-17T09:44:58.637Z,48.30
2019-03-17T09:50:02.091Z,49.22
2019-03-17T09:55:05.708Z,48.51
2019-03-17T10:00:10.695Z,48.38
2019-03-17T10:05:14.121Z,46.96
2019-03-17T10:10:17.607Z,49.12
2019-03-17T10:15:21.147Z,36.92
2019-03-17T10:20:25.672Z,35.69
2019-03-17T10:25:29.237Z,32.60
2019-03-17T10:30:33.692Z,32.36
2019-03-17T10:35:37.202Z,29.69
2019-03-17T10:40:40.792Z,31.47
2019-03-17T10:45:44.312Z,30.64
2019-03-17T10:50:49.895Z,30.63
2019-03-17T10:55:51.259Z,30.64
2019-03-17T11:00:54.938Z,31.21
2019-03-17T11:05:58.409Z,29.31
2019-03-17T11:11:01.885Z,29.92
2019-03-17T11:16:05.383Z,29.87
2019-03-17T11:21:08.968Z,30.53
2019-03-17T11:26:12.555Z,29.24
2019-03-17T11:31:16.096Z,31.71
2019-03-17T11:36:19.832Z,31.53
2019-03-17T11:41:23.357Z,28.88
2019-03-17T11:46:27.022Z,29.53
2019-03-17T11:51:31.579Z,31.19
2019-03-17T11:56:35.120Z,29.93
2019-03-17T12:01:38.738Z,30.24
2019-03-17T12:06:42.462Z,28.00
2019-03-17T12:11:46.146Z,28.67
2019-03-17T12:16:49.672Z,28.45
2019-03-17T12:21:53.344Z,27.83
2019-03-17T12:26:56.872Z,28.05
2019-03-17T12:32:01.470Z,28.12
2019-03-17T12:37:05.051Z,27.35
2019-03-17T12:42:08.658Z,28.32
2019-03-17T12:47:12.274Z,28.96
2019-03-17T12:52:15.806Z,27.44
2019-03-17T12:57:19.343Z,27.82
2019-03-17T13:02:22.977Z,28.24
2019-03-17T13:07:26.539Z,29.59
2019-03-17T13:12:30.168Z,29.43
2019-03-17T13:17:33.738Z,30.20
2019-03-17T13:22:40.048Z,31.41
2019-03-17T13:27:43.659Z,32.07
2019-03-17T13:32:47.219Z,30.31
2019-03-17T13:37:50.739Z,30.02
2019-03-17T13:42:55.409Z,29.95
2019-03-17T13:47:58.969Z,30.75
2019-03-17T13:53:02.473Z,32.53
2019-03-17T13:58:06.249Z,33.26
2019-03-17T14:03:09.857Z,35.48
2019-03-17T14:08:13.432Z,35.94
2019-03-17T14:13:16.995Z,34.23
2019-03-17T14:18:20.585Z,35.15
2019-03-17T14:23:24.104Z,35.20
2019-03-17T14:28:27.634Z,33.86
2019-03-17T14:33:31.314Z,35.31
2019-03-17T14:38:34.945Z,34.18
2019-03-17T14:43:38.501Z,34.51
2019-03-17T14:48:42.198Z,36.03
2019-03-17T14:53:45.959Z,35.68
2019-03-17T14:58:49.605Z,35.50
2019-03-17T15:03:53.229Z,36.14
2019-03-17T15:08:56.865Z,36.89
2019-03-17T15:14:00.399Z,37.42
2019-03-17T15:19:03.920Z,39.15
2019-03-17T15:24:07.532Z,39.18
2019-03-17T15:29:11.269Z,39.74
2019-03-17T15:34:14.824Z,40.21
2019-03-17T15:39:18.370Z,40.76
2019-03-17T15:44:22.002Z,41.35
2019-03-17T15:49:25.676Z,42.17
2019-03-17T15:54:31.247Z,44.11
2019-03-17T15:59:34.982Z,45.54
2019-03-17T16:04:38.644Z,47.11
2019-03-17T16:09:42.161Z,48.78
2019-03-17T16:14:45.889Z,52.11
2019-03-17T16:19:49.486Z,57.34
2019-03-17T16:24:53.137Z,59.58
2019-03-17T16:29:56.844Z,60.42
2019-03-17T16:35:00.478Z,61.96
2019-03-17T16:40:04.196Z,64.04
2019-03-17T16:45:08.023Z,63.91
2019-03-17T16:50:12.891Z,65.66
2019-03-17T16:55:16.494Z,66.44
2019-03-17T17:00:20.202Z,66.79
2019-03-17T17:05:23.845Z,67.44
2019-03-17T17:10:27.443Z,68.37
2019-03-17T17:15:31.078Z,68.08
2019-03-17T17:20:34.738Z,68.17
2019-03-17T17:25:38.289Z,67.12
2019-03-17T17:30:42.007Z,67.93
2019-03-17T17:35:45.514Z,67.45
2019-03-17T17:40:49.194Z,67.78
2019-03-17T17:45:52.817Z,67.56
2019-03-17T17:50:56.565Z,67.74
2019-03-17T17:56:00.097Z,66.83
2019-03-17T18:01:03.704Z,66.37
2019-03-17T18:06:07.413Z,66.96
2019-03-17T18:11:11.027Z,66.85
2019-03-17T18:16:14.676Z,64.70
2019-03-17T18:21:18.201Z,65.03
2019-03-17T18:26:21.743Z,65.25
2019-03-17T18:31:25.444Z,65.29
2019-03-17T18:36:29.004Z,65.53
2019-03-17T18:41:32.624Z,64.98
2019-03-17T18:46:36.160Z,65.13
2019-03-17T18:51:40.789Z,65.68
2019-03-17T18:56:44.370Z,65.28
2019-03-17T19:01:48.053Z,65.30
2019-03-17T19:06:51.598Z,65.14
2019-03-17T19:11:55.122Z,65.72
2019-03-17T19:16:58.716Z,65.09
2019-03-17T19:22:02.222Z,65.44
2019-03-17T19:27:07.702Z,65.31
2019-03-17T19:32:11.339Z,65.85
2019-03-17T19:37:15.317Z,65.49
2019-03-17T19:42:19.072Z,66.09
2019-03-17T19:47:23.868Z,66.43
2019-03-17T19:52:27.972Z,65.82
2019-03-17T19:57:31.885Z,66.24
2019-03-17T20:02:36.741Z,66.38
2019-03-17T20:07:40.339Z,65.98
2019-03-17T20:12:44.212Z,67.21
2019-03-17T20:17:47.771Z,67.05
2019-03-17T20:22:51.600Z,67.20
2019-03-17T20:27:55.355Z,67.04
2019-03-17T20:32:58.996Z,67.36
2019-03-17T20:38:02.957Z,68.22
2019-03-17T20:43:18.554Z,69.31
2019-03-17T20:48:10.333Z,69.47
2019-03-17T20:53:14.212Z,70.71
2019-03-17T20:58:17.726Z,71.05
2019-03-17T21:03:21.283Z,71.42
2019-03-17T21:08:24.994Z,72.04
2019-03-17T21:13:28.633Z,72.86
2019-03-17T21:18:32.891Z,72.48
2019-03-17T21:23:36.853Z,72.14
2019-03-17T21:28:40.744Z,72.56
2019-03-17T21:33:45.340Z,71.77
2019-03-17T21:38:48.846Z,72.03
2019-03-17T21:43:59.307Z,72.18
2019-03-17T21:48:56.207Z,71.76
2019-03-17T21:54:00.342Z,71.75
2019-03-17T21:59:04.275Z,71.75
2019-03-17T22:04:08.103Z,71.09
2019-03-17T22:09:11.719Z,70.69
2019-03-17T22:14:15.999Z,70.33
2019-03-17T22:19:19.692Z,70.15
2019-03-17T22:24:23.615Z,69.97
2019-03-17T22:29:27.074Z,69.70
2019-03-17T22:34:31.354Z,69.86
2019-03-17T22:39:35.184Z,69.89
2019-03-17T22:44:39.647Z,68.90
2019-03-17T22:49:43.303Z,69.19
2019-03-17T22:54:46.761Z,69.13
2019-03-17T22:59:50.503Z,68.81
2019-03-17T23:04:53.955Z,68.55
2019-03-17T23:09:57.416Z,68.17
2019-03-17T23:15:01.137Z,68.81
2019-03-17T23:20:05.088Z,68.74
2019-03-17T23:25:08.745Z,68.26
2019-03-17T23:30:12.325Z,68.67
2019-03-17T23:35:15.794Z,68.14
2019-03-17T23:40:19.227Z,68.48
2019-03-17T23:45:22.719Z,66.93
2019-03-17T23:50:26.160Z,67.12
2019-03-17T23:55:29.640Z,66.81
